createdAt,value
2018-09-30T00:02:00.093Z,8.60
2018-09-30T00:04:29.679Z,9.23
2018-09-30T00:06:58.528Z,8.93
2018-09-30T00:09:30.689Z,9.47
2018-09-30T00:12:02.351Z,10.20
2018-09-30T00:14:31.463Z,11.73
2018-09-30T00:17:00.938Z,12.33
2018-09-30T00:19:30.082Z,14.70
2018-09-30T00:21:59.583Z,12.00
2018-09-30T00:24:33.909Z,11.67
2018-09-30T00:27:09.228Z,10.40
2018-09-30T00:29:38.831Z,11.00
2018-09-30T00:32:07.711Z,10.87
2018-09-30T00:34:36.574Z,11.07
2018-09-30T00:37:05.512Z,11.00
2018-09-30T00:39:34.502Z,10.80
2018-09-30T00:42:03.172Z,11.13
2018-09-30T00:44:31.929Z,10.87
2018-09-30T00:47:00.787Z,11.20
2018-09-30T00:49:30.191Z,10.30
2018-09-30T00:51:59.015Z,10.73
2018-09-30T00:54:27.749Z,10.87
2018-09-30T00:56:56.441Z,11.93
2018-09-30T00:59:25.104Z,11.03
2018-09-30T01:01:54.088Z,12.03
2018-09-30T01:04:23.020Z,10.97
2018-09-30T01:06:51.751Z,11.10
2018-09-30T01:09:20.592Z,11.50
2018-09-30T01:11:49.581Z,11.53
2018-09-30T01:14:18.602Z,11.30
2018-09-30T01:16:47.341Z,11.00
2018-09-30T01:19:22.842Z,11.47
2018-09-30T01:21:51.527Z,12.10
2018-09-30T01:24:20.377Z,11.70
2018-09-30T01:26:49.123Z,11.00
2018-09-30T01:29:17.802Z,11.07
2018-09-30T01:31:46.580Z,11.30
2018-09-30T01:34:15.551Z,11.00
2018-09-30T01:36:44.556Z,11.57
2018-09-30T01:39:13.502Z,12.60
2018-09-30T01:41:42.270Z,10.87
2018-09-30T01:44:10.955Z,10.40
2018-09-30T01:46:39.716Z,11.40
2018-09-30T01:49:08.576Z,11.07
2018-09-30T01:51:37.448Z,10.63
2018-09-30T01:54:06.249Z,11.47
2018-09-30T01:56:34.927Z,9.73
2018-09-30T01:59:03.762Z,9.40
2018-09-30T02:01:32.713Z,11.20
2018-09-30T02:04:01.613Z,12.67
2018-09-30T02:06:30.520Z,11.57
2018-09-30T02:08:59.340Z,13.90
2018-09-30T02:11:28.204Z,13.87
2018-09-30T02:13:56.896Z,13.70
2018-09-30T02:16:25.749Z,14.90
2018-09-30T02:18:54.485Z,13.93
2018-09-30T02:21:23.396Z,13.67
2018-09-30T02:23:52.274Z,13.40
2018-09-30T02:26:21.062Z,12.83
2018-09-30T02:28:49.891Z,12.00
2018-09-30T02:31:18.719Z,12.03
2018-09-30T02:33:47.464Z,11.73
2018-09-30T02:36:16.328Z,9.80
2018-09-30T02:38:45.228Z,10.10
2018-09-30T02:41:13.990Z,10.20
2018-09-30T02:43:42.733Z,11.33
2018-09-30T02:46:11.607Z,9.97
2018-09-30T02:48:40.563Z,10.90
2018-09-30T02:51:09.299Z,10.80
2018-09-30T02:53:38.045Z,11.00
2018-09-30T02:56:06.823Z,11.50
2018-09-30T02:58:35.697Z,11.47
2018-09-30T03:01:04.342Z,12.27
2018-09-30T03:03:33.184Z,11.60
2018-09-30T03:06:02.353Z,12.43
2018-09-30T03:08:37.404Z,11.77
2018-09-30T03:11:06.716Z,9.63
2018-09-30T03:13:35.521Z,10.47
2018-09-30T03:16:04.391Z,8.90
2018-09-30T03:18:33.195Z,9.80
2018-09-30T03:21:02.214Z,10.93
2018-09-30T03:23:31.439Z,11.00
2018-09-30T03:26:00.120Z,11.47
2018-09-30T03:28:29.056Z,10.70
2018-09-30T03:30:57.849Z,10.30
2018-09-30T03:33:27.086Z,10.83
2018-09-30T03:35:55.828Z,11.53
2018-09-30T03:38:24.559Z,11.80
2018-09-30T03:40:53.539Z,12.20
2018-09-30T03:43:22.266Z,11.63
2018-09-30T03:45:51.722Z,11.27
2018-09-30T03:48:20.488Z,12.23
2018-09-30T03:50:49.396Z,12.17
2018-09-30T03:53:18.048Z,11.97
2018-09-30T03:55:46.862Z,12.37
2018-09-30T03:58:15.583Z,11.20
2018-09-30T04:00:44.373Z,11.53
2018-09-30T04:03:13.113Z,11.27
2018-09-30T04:05:41.827Z,10.97
2018-09-30T04:08:10.640Z,10.50
2018-09-30T04:10:40.131Z,11.73
2018-09-30T04:13:08.878Z,12.40
2018-09-30T04:15:37.828Z,11.10
2018-09-30T04:18:06.734Z,10.90
2018-09-30T04:20:35.643Z,11.57
2018-09-30T04:23:05.360Z,11.40
2018-09-30T04:25:34.204Z,11.70
2018-09-30T04:28:03.128Z,11.10
2018-09-30T04:30:32.305Z,10.80
2018-09-30T04:33:01.080Z,10.47
2018-09-30T04:35:29.995Z,12.07
2018-09-30T04:37:58.936Z,11.20
2018-09-30T04:40:27.673Z,10.90
2018-09-30T04:42:56.423Z,10.77
2018-09-30T04:45:25.212Z,12.10
2018-09-30T04:47:53.946Z,12.93
2018-09-30T04:50:22.754Z,13.73
2018-09-30T04:52:51.925Z,14.50
2018-09-30T04:55:20.674Z,13.97
2018-09-30T04:57:49.429Z,12.23
2018-09-30T05:00:18.462Z,13.00
2018-09-30T05:02:47.317Z,11.60
2018-09-30T05:05:16.008Z,12.63
2018-09-30T05:07:44.686Z,11.87
2018-09-30T05:10:13.693Z,12.50
2018-09-30T05:12:44.320Z,12.90
2018-09-30T05:15:13.106Z,12.80
2018-09-30T05:17:41.894Z,11.20
2018-09-30T05:20:10.876Z,11.10
2018-09-30T05:22:39.567Z,11.13
2018-09-30T05:25:08.368Z,12.67
2018-09-30T05:27:37.763Z,13.37
2018-09-30T05:30:06.668Z,12.40
2018-09-30T05:32:35.529Z,10.63
2018-09-30T05:35:04.223Z,12.13
2018-09-30T05:37:33.178Z,12.90
2018-09-30T05:40:04.831Z,14.60
2018-09-30T05:42:33.840Z,12.97
2018-09-30T05:45:02.747Z,15.00
2018-09-30T05:47:31.393Z,14.83
2018-09-30T05:50:00.100Z,14.07
2018-09-30T05:52:28.737Z,14.40
2018-09-30T05:54:57.900Z,14.70
2018-09-30T05:57:26.890Z,13.83
2018-09-30T05:59:55.664Z,14.60
2018-09-30T06:02:24.503Z,15.10
2018-09-30T06:04:53.246Z,15.10
2018-09-30T06:07:22.780Z,14.27
2018-09-30T06:09:52.031Z,14.60
2018-09-30T06:12:20.896Z,13.90
2018-09-30T06:14:49.714Z,12.70
2018-09-30T06:17:18.828Z,14.17
2018-09-30T06:19:47.594Z,14.00
2018-09-30T06:22:16.371Z,14.20
2018-09-30T06:24:45.631Z,16.03
2018-09-30T06:27:14.305Z,15.03
2018-09-30T06:29:43.743Z,14.40
2018-09-30T06:32:12.541Z,14.73
2018-09-30T06:34:41.263Z,15.37
2018-09-30T06:37:10.811Z,15.83
2018-09-30T06:39:39.588Z,15.57
2018-09-30T06:42:09.004Z,17.07
2018-09-30T06:44:37.757Z,16.63
2018-09-30T06:47:06.904Z,14.47
2018-09-30T06:49:35.600Z,16.07
2018-09-30T06:52:04.401Z,16.17
2018-09-30T06:54:33.133Z,16.77
2018-09-30T06:59:36.072Z,16.67
2018-09-30T07:02:05.139Z,18.50
2018-09-30T07:04:34.036Z,19.80
2018-09-30T07:07:03.689Z,17.73
2018-09-30T07:09:33.934Z,18.90
2018-09-30T07:14:36.002Z,18.33
2018-09-30T07:17:04.978Z,20.93
2018-09-30T07:19:33.575Z,19.70
2018-09-30T07:22:02.296Z,20.00
2018-09-30T07:24:31.028Z,18.27
2018-09-30T07:26:59.820Z,18.10
2018-09-30T07:29:29.614Z,18.47
2018-09-30T07:31:58.472Z,18.10
2018-09-30T07:34:27.204Z,19.13
2018-09-30T07:36:56.736Z,18.80
2018-09-30T07:39:26.131Z,16.07
2018-09-30T07:41:54.869Z,15.93
2018-09-30T07:44:23.677Z,15.20
2018-09-30T07:46:52.863Z,14.70
2018-09-30T07:49:21.527Z,14.27
2018-09-30T07:51:51.052Z,15.40
2018-09-30T07:54:19.864Z,13.90
2018-09-30T07:56:48.612Z,13.03
2018-09-30T07:59:18.214Z,12.43
2018-09-30T08:01:46.863Z,13.70
2018-09-30T08:04:15.648Z,11.40
2018-09-30T08:06:44.223Z,10.43
2018-09-30T08:09:13.399Z,11.80
2018-09-30T08:11:42.129Z,11.13
2018-09-30T08:14:11.759Z,12.60
2018-09-30T08:16:40.360Z,11.00
2018-09-30T08:19:10.748Z,10.00
2018-09-30T08:21:39.409Z,10.60
2018-09-30T08:24:08.978Z,9.10
2018-09-30T08:26:37.597Z,8.73
2018-09-30T08:29:06.390Z,9.47
2018-09-30T08:31:35.206Z,9.07
2018-09-30T08:34:04.186Z,8.70
2018-09-30T08:36:32.916Z,7.53
2018-09-30T08:39:01.641Z,8.00
2018-09-30T08:41:30.507Z,6.83
2018-09-30T08:43:59.532Z,7.33
2018-09-30T08:46:28.151Z,7.37
2018-09-30T08:48:56.967Z,7.77
2018-09-30T08:51:25.845Z,6.50
2018-09-30T08:53:54.625Z,7.40
2018-09-30T08:56:24.402Z,7.13
2018-09-30T08:58:53.124Z,7.20
2018-09-30T09:01:22.890Z,6.47
2018-09-30T09:03:52.445Z,6.37
2018-09-30T09:06:21.020Z,6.03
2018-09-30T09:08:50.666Z,6.77
2018-09-30T09:17:38.158Z,6.80
2018-09-30T09:20:06.843Z,7.10
2018-09-30T09:22:35.695Z,7.80
2018-09-30T09:25:04.632Z,6.67
2018-09-30T09:27:35.413Z,7.13
2018-09-30T09:30:04.316Z,7.67
2018-09-30T09:32:35.668Z,7.27
2018-09-30T09:35:05.966Z,6.00
2018-09-30T09:37:35.020Z,6.60
2018-09-30T09:40:04.885Z,6.43
2018-09-30T09:42:33.763Z,6.63
2018-09-30T09:45:02.549Z,6.00
2018-09-30T09:47:31.622Z,5.30
2018-09-30T09:50:00.608Z,5.57
2018-09-30T09:55:29.476Z,5.70
2018-09-30T09:57:58.284Z,5.77
2018-09-30T10:00:45.887Z,6.40
2018-09-30T10:03:15.686Z,5.60
2018-09-30T10:05:44.623Z,4.63
2018-09-30T10:08:13.489Z,5.07
2018-09-30T10:10:42.082Z,6.80
2018-09-30T10:13:10.781Z,6.60
2018-09-30T10:15:39.378Z,5.10
2018-09-30T10:18:08.130Z,5.83
2018-09-30T10:20:37.018Z,4.40
2018-09-30T10:23:05.905Z,5.33
2018-09-30T10:25:35.271Z,5.03
2018-09-30T10:28:03.939Z,5.33
2018-09-30T10:30:32.652Z,5.37
2018-09-30T10:33:01.039Z,5.43
2018-09-30T10:35:29.732Z,4.23
2018-09-30T10:37:59.355Z,5.80
2018-09-30T10:40:28.734Z,4.73
2018-09-30T10:42:58.032Z,4.33
2018-09-30T10:45:26.940Z,4.53
2018-09-30T10:47:55.644Z,4.90
2018-09-30T10:50:24.405Z,6.13
2018-09-30T10:52:53.391Z,5.70
2018-09-30T10:55:22.251Z,5.80
2018-09-30T10:57:50.939Z,5.53
2018-09-30T11:00:19.617Z,5.53
2018-09-30T11:02:48.556Z,6.53
2018-09-30T11:05:17.120Z,5.93
2018-09-30T11:07:45.771Z,6.10
2018-09-30T11:10:14.618Z,5.80
2018-09-30T11:12:43.274Z,6.40
2018-09-30T11:15:12.063Z,6.20
2018-09-30T11:17:40.691Z,6.03
2018-09-30T11:20:09.339Z,4.50
2018-09-30T11:22:38.115Z,4.30
2018-09-30T11:25:06.939Z,3.40
2018-09-30T11:27:35.542Z,3.50
2018-09-30T11:30:04.292Z,3.40
2018-09-30T11:32:32.952Z,4.00
2018-09-30T11:35:01.546Z,3.80
2018-09-30T11:37:30.171Z,3.77
2018-09-30T11:39:58.883Z,4.40
2018-09-30T11:42:27.552Z,4.40
2018-09-30T11:44:56.163Z,3.90
2018-09-30T11:47:24.791Z,4.77
2018-09-30T11:49:53.451Z,4.30
2018-09-30T11:52:22.117Z,3.73
2018-09-30T11:54:50.795Z,3.60
2018-09-30T11:57:19.418Z,4.20
2018-09-30T11:59:48.354Z,3.93
2018-09-30T12:02:17.150Z,3.90
2018-09-30T12:04:45.912Z,3.33
2018-09-30T12:07:14.445Z,3.57
2018-09-30T12:09:43.033Z,4.13
2018-09-30T12:12:11.745Z,4.40
2018-09-30T12:14:41.641Z,5.03
2018-09-30T12:17:10.552Z,3.90
2018-09-30T12:19:39.732Z,4.47
2018-09-30T12:22:08.854Z,4.47
2018-09-30T12:24:38.305Z,4.30
2018-09-30T12:27:08.547Z,4.70
2018-09-30T12:29:38.352Z,4.30
2018-09-30T12:32:07.399Z,3.97
2018-09-30T12:34:36.151Z,4.07
2018-09-30T12:37:05.774Z,3.30
2018-09-30T12:39:34.503Z,3.97
2018-09-30T12:42:03.817Z,4.17
2018-09-30T12:44:33.611Z,4.17
2018-09-30T12:47:02.328Z,4.07
2018-09-30T12:49:30.963Z,3.87
2018-09-30T12:52:00.828Z,3.97
2018-09-30T12:54:30.284Z,4.23
2018-09-30T12:56:59.866Z,3.80
2018-09-30T12:59:28.826Z,4.23
2018-09-30T13:01:57.590Z,4.43
2018-09-30T13:04:27.175Z,3.97
2018-09-30T13:06:57.274Z,4.50
2018-09-30T13:09:30.728Z,4.20
2018-09-30T13:12:06.181Z,4.80
2018-09-30T13:14:36.236Z,4.40
2018-09-30T13:17:05.232Z,3.93
2018-09-30T13:19:33.934Z,3.83
2018-09-30T13:22:02.906Z,3.80
2018-09-30T13:24:31.700Z,3.57
2018-09-30T13:27:01.906Z,3.53
2018-09-30T13:29:30.718Z,4.07
2018-09-30T13:32:02.130Z,3.57
2018-09-30T13:34:32.107Z,3.40
2018-09-30T13:37:01.122Z,3.80
2018-09-30T13:39:29.949Z,3.97
2018-09-30T13:41:58.937Z,3.57
2018-09-30T13:44:27.725Z,3.80
2018-09-30T13:46:56.479Z,3.10
2018-09-30T13:49:25.281Z,3.30
2018-09-30T13:51:54.165Z,3.43
2018-09-30T13:54:23.740Z,3.00
2018-09-30T13:56:52.482Z,2.60
2018-09-30T13:59:22.207Z,2.90
2018-09-30T14:01:51.136Z,2.73
2018-09-30T14:04:20.354Z,3.60
2018-09-30T14:06:50.831Z,3.30
2018-09-30T14:09:19.650Z,2.57
2018-09-30T14:11:48.702Z,3.10
2018-09-30T14:14:17.794Z,3.43
2018-09-30T14:16:48.495Z,3.17
2018-09-30T14:19:18.287Z,2.80
2018-09-30T14:21:53.914Z,3.30
2018-09-30T14:24:22.791Z,2.40
2018-09-30T14:26:52.079Z,2.30
2018-09-30T14:29:21.394Z,2.43
2018-09-30T14:31:50.424Z,2.40
2018-09-30T14:34:20.182Z,3.17
2018-09-30T14:36:48.985Z,2.47
2018-09-30T14:39:19.039Z,2.63
2018-09-30T14:41:48.779Z,3.10
2018-09-30T14:44:17.633Z,2.53
2018-09-30T14:46:46.312Z,2.23
2018-09-30T14:49:15.139Z,2.40
2018-09-30T14:51:44.828Z,2.80
2018-09-30T14:54:13.753Z,2.17
2018-09-30T14:56:44.841Z,2.57
2018-09-30T14:59:14.380Z,2.67
2018-09-30T15:01:43.146Z,2.10
2018-09-30T15:04:12.938Z,2.00
2018-09-30T15:06:42.824Z,2.80
2018-09-30T15:09:12.929Z,2.20
2018-09-30T15:11:42.488Z,2.30
2018-09-30T15:14:12.501Z,2.60
2018-09-30T15:16:42.159Z,2.60
2018-09-30T15:19:11.385Z,2.43
2018-09-30T15:21:40.902Z,2.10
2018-09-30T15:24:10.923Z,2.47
2018-09-30T15:26:39.882Z,2.50
2018-09-30T15:29:08.743Z,2.37
2018-09-30T15:31:37.713Z,2.67
2018-09-30T15:34:06.724Z,2.80
2018-09-30T15:36:35.559Z,2.90
2018-09-30T15:39:06.436Z,3.50
2018-09-30T15:41:36.255Z,2.00
2018-09-30T15:44:04.981Z,2.23
2018-09-30T15:46:34.346Z,2.80
2018-09-30T15:49:04.903Z,2.57
2018-09-30T15:51:34.069Z,2.10
2018-09-30T15:54:03.994Z,2.70
2018-09-30T15:56:32.936Z,2.27
2018-09-30T15:59:03.409Z,1.97
2018-09-30T16:01:32.725Z,2.30
2018-09-30T16:04:02.131Z,2.13
2018-09-30T16:06:31.615Z,1.87
2018-09-30T16:09:00.994Z,2.00
2018-09-30T16:11:31.250Z,2.33
2018-09-30T16:14:01.632Z,2.10
2018-09-30T16:16:31.694Z,1.97
2018-09-30T16:19:00.761Z,2.43
2018-09-30T16:21:30.983Z,2.10
2018-09-30T16:24:01.100Z,2.60
2018-09-30T16:26:30.385Z,3.10
2018-09-30T16:29:00.612Z,2.80
2018-09-30T16:31:30.355Z,2.80
2018-09-30T16:34:00.208Z,2.27
2018-09-30T16:36:29.355Z,2.30
2018-09-30T16:38:58.267Z,2.70
2018-09-30T16:41:27.249Z,2.40
2018-09-30T16:43:56.294Z,4.80
2018-09-30T16:46:25.162Z,5.03
2018-09-30T16:48:54.027Z,4.20
2018-09-30T16:51:22.944Z,3.63
2018-09-30T16:53:51.828Z,3.03
2018-09-30T16:56:20.517Z,6.30
2018-09-30T16:58:50.096Z,4.40
2018-09-30T17:01:19.112Z,3.20
2018-09-30T17:03:49.294Z,3.20
2018-09-30T17:06:18.396Z,4.30
2018-09-30T17:08:47.574Z,2.47
2018-09-30T17:11:16.473Z,2.37
2018-09-30T17:13:46.882Z,2.67
2018-09-30T17:16:15.920Z,3.37
2018-09-30T17:18:44.980Z,3.00
2018-09-30T17:21:14.343Z,3.00
2018-09-30T17:23:43.281Z,2.50
2018-09-30T17:26:12.159Z,3.20
2018-09-30T17:28:41.120Z,2.27
2018-09-30T17:31:10.782Z,2.23
2018-09-30T17:33:40.360Z,2.40
2018-09-30T17:36:09.404Z,1.97
2018-09-30T17:38:38.964Z,2.37
2018-09-30T17:41:07.933Z,2.10
2018-09-30T17:43:37.137Z,2.17
2018-09-30T17:46:06.871Z,2.20
2018-09-30T17:48:35.938Z,2.63
2018-09-30T17:51:04.746Z,2.37
2018-09-30T17:53:34.112Z,2.53
2018-09-30T17:56:08.911Z,2.30
2018-09-30T17:58:38.040Z,2.50
2018-09-30T18:01:07.903Z,2.60
2018-09-30T18:03:36.801Z,2.87
2018-09-30T18:06:05.797Z,3.00
2018-09-30T18:08:34.537Z,2.77
2018-09-30T18:11:03.487Z,2.43
2018-09-30T18:13:32.412Z,2.87
2018-09-30T18:16:01.278Z,2.97
2018-09-30T18:18:30.240Z,2.80
2018-09-30T18:20:59.861Z,2.80
2018-09-30T18:23:28.748Z,3.57
2018-09-30T18:25:57.553Z,3.57
2018-09-30T18:28:27.051Z,2.90
2018-09-30T18:30:56.345Z,2.60
2018-09-30T18:33:25.473Z,3.13
2018-09-30T18:35:54.580Z,3.37
2018-09-30T18:38:23.755Z,3.57
2018-09-30T18:40:52.729Z,3.47
2018-09-30T18:43:22.221Z,3.73
2018-09-30T18:45:51.397Z,3.53
2018-09-30T18:48:20.629Z,3.40
2018-09-30T18:50:50.636Z,3.73
2018-09-30T18:53:24.375Z,3.80
2018-09-30T18:55:54.178Z,3.47
2018-09-30T18:58:24.454Z,3.27
2018-09-30T19:00:53.952Z,3.20
2018-09-30T19:03:23.343Z,3.60
2018-09-30T19:05:52.549Z,3.90
2018-09-30T19:08:21.790Z,4.13
2018-09-30T19:10:50.972Z,4.33
2018-09-30T19:13:20.429Z,4.20
2018-09-30T19:15:49.680Z,3.93
2018-09-30T19:18:18.920Z,4.27
2018-09-30T19:20:48.135Z,4.50
2018-09-30T19:23:19.501Z,4.50
2018-09-30T19:25:51.220Z,3.67
2018-09-30T19:28:20.108Z,3.70
2018-09-30T19:30:48.892Z,4.63
2018-09-30T19:33:18.148Z,4.53
2018-09-30T19:35:47.282Z,3.90
2018-09-30T19:38:16.217Z,4.00
2018-09-30T19:40:45.038Z,3.87
2018-09-30T19:43:13.821Z,3.87
2018-09-30T19:45:43.019Z,3.80
2018-09-30T19:48:12.940Z,3.60
2018-09-30T19:50:41.958Z,3.63
2018-09-30T19:53:10.836Z,3.70
2018-09-30T19:55:39.490Z,3.13
2018-09-30T19:58:08.214Z,3.53
2018-09-30T20:00:37.104Z,2.73
2018-09-30T20:03:06.897Z,2.63
2018-09-30T20:05:35.792Z,2.70
2018-09-30T20:08:04.643Z,2.77
2018-09-30T20:10:34.316Z,2.90
2018-09-30T20:13:04.354Z,3.10
2018-09-30T20:15:33.753Z,2.93
2018-09-30T20:18:02.481Z,3.10
2018-09-30T20:20:31.223Z,3.00
2018-09-30T20:22:59.946Z,2.83
2018-09-30T20:25:28.522Z,2.93
2018-09-30T20:27:57.640Z,2.50
2018-09-30T20:30:26.387Z,2.63
2018-09-30T20:32:56.174Z,3.30
2018-09-30T20:35:24.884Z,2.60
2018-09-30T20:37:53.952Z,2.53
2018-09-30T20:40:23.227Z,2.97
2018-09-30T20:42:51.876Z,2.60
2018-09-30T20:45:20.676Z,2.40
2018-09-30T20:47:50.888Z,2.70
2018-09-30T20:50:19.832Z,2.80
2018-09-30T20:52:48.677Z,2.30
2018-09-30T20:55:17.481Z,2.27
2018-09-30T20:57:46.141Z,2.70
2018-09-30T21:00:15.252Z,2.90
2018-09-30T21:02:50.917Z,2.33
2018-09-30T21:05:34.470Z,2.80
2018-09-30T21:08:03.375Z,3.03
2018-09-30T21:10:31.983Z,3.03
2018-09-30T21:13:00.553Z,2.33
2018-09-30T21:15:29.145Z,2.40
2018-09-30T21:17:57.875Z,2.40
2018-09-30T21:20:26.626Z,2.77
2018-09-30T21:22:55.720Z,3.17
2018-09-30T21:25:24.521Z,3.30
2018-09-30T21:27:53.527Z,2.43
2018-09-30T21:30:22.408Z,3.10
2018-09-30T21:32:51.112Z,3.10
2018-09-30T21:35:19.813Z,3.43
2018-09-30T21:37:49.826Z,3.57
2018-09-30T21:40:20.663Z,3.33
2018-09-30T21:42:50.486Z,2.90
2018-09-30T21:45:19.984Z,2.80
2018-09-30T21:47:50.630Z,3.33
2018-09-30T21:50:20.504Z,2.93
2018-09-30T21:52:49.411Z,3.80
2018-09-30T21:55:19.811Z,2.93
2018-09-30T21:57:48.661Z,2.90
2018-09-30T22:01:24.842Z,2.83
2018-09-30T22:03:54.160Z,3.13
2018-09-30T22:06:22.912Z,3.03
2018-09-30T22:08:52.089Z,2.50
2018-09-30T22:11:20.866Z,2.33
2018-09-30T22:13:52.412Z,2.50
2018-09-30T22:16:21.110Z,2.80
2018-09-30T22:18:50.792Z,3.40
2018-09-30T22:21:20.359Z,2.83
2018-09-30T22:23:49.237Z,2.73
2018-09-30T22:26:18.208Z,2.53
2018-09-30T22:28:49.710Z,3.33
2018-09-30T22:31:18.475Z,2.80
2018-09-30T22:33:47.414Z,2.77
2018-09-30T22:36:18.075Z,3.20
2018-09-30T22:38:47.059Z,2.33
2018-09-30T22:41:15.787Z,2.43
2018-09-30T22:43:44.589Z,2.17
2018-09-30T22:46:13.339Z,2.23
2018-09-30T22:48:42.183Z,2.20
2018-09-30T22:51:17.665Z,2.17
2018-09-30T22:53:46.575Z,2.20
2018-09-30T22:56:16.579Z,1.93
2018-09-30T22:58:46.491Z,1.70
2018-09-30T23:01:15.563Z,2.33
2018-09-30T23:03:44.581Z,1.80
2018-09-30T23:06:14.263Z,2.33
2018-09-30T23:08:43.620Z,2.20
2018-09-30T23:11:13.939Z,2.90
2018-09-30T23:13:44.410Z,2.10
2018-09-30T23:16:13.219Z,1.60
2018-09-30T23:18:42.452Z,2.10
2018-09-30T23:21:11.571Z,2.20
2018-09-30T23:23:40.459Z,1.80
2018-09-30T23:26:09.119Z,1.77
2018-09-30T23:28:38.179Z,1.60
2018-09-30T23:31:08.408Z,2.30
2018-09-30T23:33:37.287Z,2.60
2018-09-30T23:36:06.701Z,1.70
2018-09-30T23:38:35.506Z,1.67
2018-09-30T23:41:06.049Z,1.97
2018-09-30T23:43:35.068Z,2.27
2018-09-30T23:46:04.874Z,1.80
2018-09-30T23:48:34.333Z,2.03
2018-09-30T23:51:03.706Z,2.40
2018-09-30T23:53:32.478Z,1.50
2018-09-30T23:56:01.466Z,2.30
